sensor_id;sensor_type;location;lat;lon;timestamp;P1;durP1;ratioP1;P2;durP2;ratioP2
48975;SDS011;34791;52.752;8.346;2023-03-03T00:00:48;52.00;;;17.20;;
48975;SDS011;34791;52.752;8.346;2023-03-03T00:03:15;42.87;;;15.00;;
48975;SDS011;34791;52.752;8.346;2023-03-03T00:05:42;48.33;;;16.80;;
48975;SDS011;34791;52.752;8.346;2023-03-03T00:08:08;48.77;;;16.80;;
48975;SDS011;34791;52.752;8.346;2023-03-03T00:10:34;54.80;;;17.00;;
48975;SDS011;34791;52.752;8.346;2023-03-03T00:13:00;49.63;;;16.50;;
48975;SDS011;34791;52.752;8.346;2023-03-03T00:15:26;50.13;;;18.70;;
48975;SDS011;34791;52.752;8.346;2023-03-03T00:17:53;47.60;;;17.20;;
48975;SDS011;34791;52.752;8.346;2023-03-03T00:25:48;47.87;;;17.00;;
48975;SDS011;34791;52.752;8.346;2023-03-03T00:28:25;48.80;;;17.43;;
48975;SDS011;34791;52.752;8.346;2023-03-03T00:30:57;46.92;;;17.02;;
48975;SDS011;34791;52.752;8.346;2023-03-03T00:33:29;47.30;;;17.43;;
48975;SDS011;34791;52.752;8.346;2023-03-03T00:36:05;50.93;;;17.67;;
48975;SDS011;34791;52.752;8.346;2023-03-03T00:38:46;46.90;;;17.10;;
48975;SDS011;34791;52.752;8.346;2023-03-03T00:41:19;43.63;;;16.33;;
48975;SDS011;34791;52.752;8.346;2023-03-03T00:43:48;44.70;;;16.60;;
48975;SDS011;34791;52.752;8.346;2023-03-03T00:46:16;44.73;;;17.67;;
48975;SDS011;34791;52.752;8.346;2023-03-03T00:48:46;44.05;;;16.58;;
48975;SDS011;34791;52.752;8.346;2023-03-03T00:53:47;43.83;;;15.63;;
48975;SDS011;34791;52.752;8.346;2023-03-03T00:56:13;43.07;;;16.10;;
48975;SDS011;34791;52.752;8.346;2023-03-03T00:58:39;37.13;;;13.13;;
48975;SDS011;34791;52.752;8.346;2023-03-03T01:01:04;45.43;;;16.20;;
48975;SDS011;34791;52.752;8.346;2023-03-03T01:03:30;42.50;;;15.47;;
48975;SDS011;34791;52.752;8.346;2023-03-03T01:05:56;43.73;;;15.97;;
48975;SDS011;34791;52.752;8.346;2023-03-03T01:08:21;41.43;;;16.57;;
48975;SDS011;34791;52.752;8.346;2023-03-03T01:10:48;49.10;;;18.63;;
48975;SDS011;34791;52.752;8.346;2023-03-03T01:13:22;45.70;;;17.67;;
48975;SDS011;34791;52.752;8.346;2023-03-03T01:18:15;47.37;;;17.60;;
48975;SDS011;34791;52.752;8.346;2023-03-03T01:20:41;44.53;;;16.63;;
48975;SDS011;34791;52.752;8.346;2023-03-03T01:23:06;48.50;;;17.43;;
48975;SDS011;34791;52.752;8.346;2023-03-03T01:25:32;50.00;;;20.17;;
48975;SDS011;34791;52.752;8.346;2023-03-03T01:27:57;47.70;;;17.90;;
48975;SDS011;34791;52.752;8.346;2023-03-03T01:30:23;47.83;;;17.97;;
48975;SDS011;34791;52.752;8.346;2023-03-03T01:32:49;52.50;;;18.67;;
48975;SDS011;34791;52.752;8.346;2023-03-03T01:35:15;54.77;;;19.50;;
48975;SDS011;34791;52.752;8.346;2023-03-03T01:37:41;49.47;;;19.17;;
48975;SDS011;34791;52.752;8.346;2023-03-03T01:40:07;51.07;;;18.90;;
48975;SDS011;34791;52.752;8.346;2023-03-03T01:42:38;58.70;;;20.27;;
48975;SDS011;34791;52.752;8.346;2023-03-03T01:45:12;56.63;;;18.57;;
48975;SDS011;34791;52.752;8.346;2023-03-03T01:47:38;58.30;;;20.00;;
48975;SDS011;34791;52.752;8.346;2023-03-03T01:52:39;76.07;;;22.90;;
48975;SDS011;34791;52.752;8.346;2023-03-03T01:55:29;78.43;;;21.67;;
48975;SDS011;34791;52.752;8.346;2023-03-03T01:58:03;83.88;;;24.35;;
48975;SDS011;34791;52.752;8.346;2023-03-03T02:00:33;81.30;;;24.10;;
48975;SDS011;34791;52.752;8.346;2023-03-03T02:03:02;94.67;;;27.23;;
48975;SDS011;34791;52.752;8.346;2023-03-03T02:05:28;90.93;;;24.03;;
48975;SDS011;34791;52.752;8.346;2023-03-03T02:07:54;116.53;;;28.13;;
48975;SDS011;34791;52.752;8.346;2023-03-03T02:10:20;129.50;;;31.00;;
48975;SDS011;34791;52.752;8.346;2023-03-03T02:12:53;125.67;;;29.13;;
48975;SDS011;34791;52.752;8.346;2023-03-03T02:17:58;139.70;;;31.57;;
48975;SDS011;34791;52.752;8.346;2023-03-03T02:30:56;157.90;;;32.80;;
48975;SDS011;34791;52.752;8.346;2023-03-03T02:33:23;155.50;;;34.00;;
48975;SDS011;34791;52.752;8.346;2023-03-03T02:35:48;153.53;;;34.67;;
48975;SDS011;34791;52.752;8.346;2023-03-03T02:38:28;157.23;;;33.40;;
48975;SDS011;34791;52.752;8.346;2023-03-03T02:43:39;168.67;;;34.00;;
48975;SDS011;34791;52.752;8.346;2023-03-03T02:46:17;171.63;;;34.20;;
48975;SDS011;34791;52.752;8.346;2023-03-03T02:48:43;157.50;;;33.73;;
48975;SDS011;34791;52.752;8.346;2023-03-03T02:51:08;172.13;;;34.87;;
48975;SDS011;34791;52.752;8.346;2023-03-03T02:53:34;179.83;;;34.87;;
48975;SDS011;34791;52.752;8.346;2023-03-03T02:56:00;161.83;;;34.83;;
48975;SDS011;34791;52.752;8.346;2023-03-03T02:58:25;164.87;;;34.20;;
48975;SDS011;34791;52.752;8.346;2023-03-03T03:00:51;144.33;;;33.17;;
48975;SDS011;34791;52.752;8.346;2023-03-03T03:03:16;155.60;;;33.47;;
48975;SDS011;34791;52.752;8.346;2023-03-03T03:05:42;173.67;;;34.70;;
48975;SDS011;34791;52.752;8.346;2023-03-03T03:08:07;176.87;;;37.50;;
48975;SDS011;34791;52.752;8.346;2023-03-03T03:10:33;165.17;;;33.40;;
48975;SDS011;34791;52.752;8.346;2023-03-03T03:12:59;171.93;;;34.97;;
48975;SDS011;34791;52.752;8.346;2023-03-03T03:15:24;173.50;;;34.87;;
48975;SDS011;34791;52.752;8.346;2023-03-03T03:17:49;163.03;;;35.10;;
48975;SDS011;34791;52.752;8.346;2023-03-03T03:20:15;156.83;;;33.40;;
48975;SDS011;34791;52.752;8.346;2023-03-03T03:22:41;157.83;;;33.00;;
48975;SDS011;34791;52.752;8.346;2023-03-03T03:25:06;167.83;;;34.57;;
48975;SDS011;34791;52.752;8.346;2023-03-03T03:27:32;173.80;;;35.30;;
48975;SDS011;34791;52.752;8.346;2023-03-03T03:29:57;165.00;;;33.17;;
48975;SDS011;34791;52.752;8.346;2023-03-03T03:32:23;167.13;;;36.63;;
48975;SDS011;34791;52.752;8.346;2023-03-03T03:34:48;159.83;;;34.07;;
48975;SDS011;34791;52.752;8.346;2023-03-03T03:37:14;155.17;;;33.70;;
48975;SDS011;34791;52.752;8.346;2023-03-03T03:39:39;161.87;;;34.07;;
48975;SDS011;34791;52.752;8.346;2023-03-03T03:42:05;168.23;;;34.60;;
48975;SDS011;34791;52.752;8.346;2023-03-03T03:44:30;153.30;;;33.80;;
48975;SDS011;34791;52.752;8.346;2023-03-03T03:46:55;144.60;;;32.13;;
48975;SDS011;34791;52.752;8.346;2023-03-03T03:49:21;151.63;;;32.93;;
48975;SDS011;34791;52.752;8.346;2023-03-03T03:51:46;153.03;;;33.30;;
48975;SDS011;34791;52.752;8.346;2023-03-03T03:54:11;133.00;;;30.60;;
48975;SDS011;34791;52.752;8.346;2023-03-03T03:56:37;136.93;;;29.77;;
48975;SDS011;34791;52.752;8.346;2023-03-03T03:59:04;147.37;;;32.37;;
48975;SDS011;34791;52.752;8.346;2023-03-03T04:01:30;130.70;;;30.77;;
48975;SDS011;34791;52.752;8.346;2023-03-03T04:03:55;144.53;;;31.83;;
48975;SDS011;34791;52.752;8.346;2023-03-03T04:06:20;103.57;;;28.50;;
48975;SDS011;34791;52.752;8.346;2023-03-03T04:08:46;88.37;;;26.00;;
48975;SDS011;34791;52.752;8.346;2023-03-03T04:11:11;78.97;;;24.50;;
48975;SDS011;34791;52.752;8.346;2023-03-03T04:13:37;80.77;;;24.50;;
48975;SDS011;34791;52.752;8.346;2023-03-03T04:16:02;79.13;;;25.63;;
48975;SDS011;34791;52.752;8.346;2023-03-03T04:18:27;79.63;;;24.60;;
48975;SDS011;34791;52.752;8.346;2023-03-03T04:20:53;73.93;;;23.43;;
48975;SDS011;34791;52.752;8.346;2023-03-03T04:23:19;68.93;;;22.40;;
48975;SDS011;34791;52.752;8.346;2023-03-03T04:25:45;69.07;;;22.87;;
48975;SDS011;34791;52.752;8.346;2023-03-03T04:28:11;66.43;;;22.77;;
48975;SDS011;34791;52.752;8.346;2023-03-03T04:30:37;60.57;;;22.57;;
48975;SDS011;34791;52.752;8.346;2023-03-03T04:33:02;70.60;;;23.77;;
48975;SDS011;34791;52.752;8.346;2023-03-03T04:35:28;63.53;;;21.47;;
48975;SDS011;34791;52.752;8.346;2023-03-03T04:37:53;65.87;;;22.97;;
48975;SDS011;34791;52.752;8.346;2023-03-03T04:40:19;64.13;;;22.60;;
48975;SDS011;34791;52.752;8.346;2023-03-03T04:42:44;74.13;;;24.03;;
48975;SDS011;34791;52.752;8.346;2023-03-03T04:45:10;81.87;;;25.83;;
48975;SDS011;34791;52.752;8.346;2023-03-03T04:47:36;92.17;;;26.97;;
48975;SDS011;34791;52.752;8.346;2023-03-03T04:50:01;99.80;;;28.43;;
48975;SDS011;34791;52.752;8.346;2023-03-03T04:52:27;119.20;;;28.07;;
48975;SDS011;34791;52.752;8.346;2023-03-03T04:54:52;115.70;;;29.80;;
48975;SDS011;34791;52.752;8.346;2023-03-03T04:57:18;146.00;;;30.97;;
48975;SDS011;34791;52.752;8.346;2023-03-03T04:59:43;137.97;;;30.13;;
48975;SDS011;34791;52.752;8.346;2023-03-03T05:02:09;147.30;;;31.73;;
48975;SDS011;34791;52.752;8.346;2023-03-03T05:04:34;134.90;;;31.43;;
48975;SDS011;34791;52.752;8.346;2023-03-03T05:07:00;113.90;;;28.27;;
48975;SDS011;34791;52.752;8.346;2023-03-03T05:09:25;136.50;;;29.60;;
48975;SDS011;34791;52.752;8.346;2023-03-03T05:11:51;121.47;;;30.23;;
48975;SDS011;34791;52.752;8.346;2023-03-03T05:14:17;124.20;;;29.20;;
48975;SDS011;34791;52.752;8.346;2023-03-03T05:16:42;115.80;;;28.73;;
48975;SDS011;34791;52.752;8.346;2023-03-03T05:19:08;112.07;;;29.90;;
48975;SDS011;34791;52.752;8.346;2023-03-03T05:21:33;111.07;;;28.40;;
48975;SDS011;34791;52.752;8.346;2023-03-03T05:23:59;102.83;;;27.20;;
48975;SDS011;34791;52.752;8.346;2023-03-03T05:26:24;108.70;;;27.90;;
48975;SDS011;34791;52.752;8.346;2023-03-03T05:28:49;107.93;;;27.47;;
48975;SDS011;34791;52.752;8.346;2023-03-03T05:31:15;103.00;;;28.10;;
48975;SDS011;34791;52.752;8.346;2023-03-03T05:33:40;102.90;;;27.90;;
48975;SDS011;34791;52.752;8.346;2023-03-03T05:36:06;104.93;;;26.87;;
48975;SDS011;34791;52.752;8.346;2023-03-03T05:38:32;101.20;;;26.40;;
48975;SDS011;34791;52.752;8.346;2023-03-03T05:40:57;102.37;;;27.77;;
48975;SDS011;34791;52.752;8.346;2023-03-03T05:43:22;98.43;;;28.23;;
48975;SDS011;34791;52.752;8.346;2023-03-03T05:45:53;101.33;;;26.53;;
48975;SDS011;34791;52.752;8.346;2023-03-03T05:48:19;90.30;;;27.05;;
48975;SDS011;34791;52.752;8.346;2023-03-03T05:50:44;91.93;;;24.80;;
48975;SDS011;34791;52.752;8.346;2023-03-03T05:53:10;105.67;;;26.83;;
48975;SDS011;34791;52.752;8.346;2023-03-03T05:55:38;105.37;;;28.37;;
48975;SDS011;34791;52.752;8.346;2023-03-03T05:58:13;100.13;;;26.20;;
48975;SDS011;34791;52.752;8.346;2023-03-03T06:00:38;129.13;;;31.40;;
48975;SDS011;34791;52.752;8.346;2023-03-03T06:03:04;136.30;;;31.83;;
48975;SDS011;34791;52.752;8.346;2023-03-03T06:05:29;130.63;;;30.37;;
48975;SDS011;34791;52.752;8.346;2023-03-03T06:07:54;137.90;;;32.43;;
48975;SDS011;34791;52.752;8.346;2023-03-03T06:10:20;133.40;;;31.90;;
48975;SDS011;34791;52.752;8.346;2023-03-03T06:12:45;123.63;;;29.33;;
48975;SDS011;34791;52.752;8.346;2023-03-03T06:15:10;138.77;;;33.73;;
48975;SDS011;34791;52.752;8.346;2023-03-03T06:17:36;126.53;;;30.10;;
48975;SDS011;34791;52.752;8.346;2023-03-03T06:20:01;137.73;;;31.13;;
48975;SDS011;34791;52.752;8.346;2023-03-03T06:22:28;130.90;;;30.57;;
48975;SDS011;34791;52.752;8.346;2023-03-03T06:24:54;133.47;;;30.53;;
48975;SDS011;34791;52.752;8.346;2023-03-03T06:27:19;122.60;;;29.90;;
48975;SDS011;34791;52.752;8.346;2023-03-03T06:29:45;127.67;;;30.93;;
48975;SDS011;34791;52.752;8.346;2023-03-03T06:32:13;133.07;;;30.63;;
48975;SDS011;34791;52.752;8.346;2023-03-03T06:34:38;134.53;;;31.53;;
48975;SDS011;34791;52.752;8.346;2023-03-03T06:37:04;135.20;;;31.23;;
48975;SDS011;34791;52.752;8.346;2023-03-03T06:39:29;133.40;;;31.63;;
48975;SDS011;34791;52.752;8.346;2023-03-03T06:41:54;135.53;;;29.77;;
48975;SDS011;34791;52.752;8.346;2023-03-03T06:44:20;123.70;;;29.80;;
48975;SDS011;34791;52.752;8.346;2023-03-03T06:46:45;123.80;;;29.80;;
48975;SDS011;34791;52.752;8.346;2023-03-03T06:49:11;125.13;;;28.93;;
48975;SDS011;34791;52.752;8.346;2023-03-03T06:51:37;103.97;;;24.40;;
48975;SDS011;34791;52.752;8.346;2023-03-03T06:54:11;106.32;;;26.15;;
48975;SDS011;34791;52.752;8.346;2023-03-03T06:56:39;100.40;;;24.15;;
48975;SDS011;34791;52.752;8.346;2023-03-03T06:59:15;100.57;;;24.77;;
48975;SDS011;34791;52.752;8.346;2023-03-03T07:01:44;89.57;;;23.80;;
48975;SDS011;34791;52.752;8.346;2023-03-03T07:04:27;119.10;;;31.23;;
48975;SDS011;34791;52.752;8.346;2023-03-03T07:06:56;94.87;;;24.93;;
48975;SDS011;34791;52.752;8.346;2023-03-03T07:09:24;106.13;;;26.47;;
48975;SDS011;34791;52.752;8.346;2023-03-03T07:11:56;113.33;;;26.83;;
48975;SDS011;34791;52.752;8.346;2023-03-03T07:14:25;110.75;;;27.30;;
48975;SDS011;34791;52.752;8.346;2023-03-03T07:17:00;119.53;;;28.70;;
48975;SDS011;34791;52.752;8.346;2023-03-03T07:19:33;99.53;;;24.80;;
48975;SDS011;34791;52.752;8.346;2023-03-03T07:22:00;105.20;;;25.60;;
48975;SDS011;34791;52.752;8.346;2023-03-03T07:24:46;110.80;;;25.17;;
48975;SDS011;34791;52.752;8.346;2023-03-03T07:29:53;104.57;;;24.73;;
48975;SDS011;34791;52.752;8.346;2023-03-03T07:32:30;100.80;;;24.98;;
48975;SDS011;34791;52.752;8.346;2023-03-03T07:34:56;100.45;;;25.05;;
48975;SDS011;34791;52.752;8.346;2023-03-03T07:39:46;102.17;;;26.00;;
48975;SDS011;34791;52.752;8.346;2023-03-03T07:42:24;102.87;;;25.77;;
48975;SDS011;34791;52.752;8.346;2023-03-03T07:45:30;102.13;;;25.00;;
48975;SDS011;34791;52.752;8.346;2023-03-03T07:50:48;98.83;;;23.90;;
48975;SDS011;34791;52.752;8.346;2023-03-03T07:53:17;98.50;;;23.67;;
48975;SDS011;34791;52.752;8.346;2023-03-03T07:55:50;104.70;;;26.03;;
48975;SDS011;34791;52.752;8.346;2023-03-03T07:58:22;99.73;;;24.40;;
48975;SDS011;34791;52.752;8.346;2023-03-03T08:03:56;117.90;;;26.87;;
48975;SDS011;34791;52.752;8.346;2023-03-03T08:09:18;126.77;;;29.53;;
48975;SDS011;34791;52.752;8.346;2023-03-03T08:11:57;139.00;;;29.93;;
48975;SDS011;34791;52.752;8.346;2023-03-03T08:17:06;129.40;;;28.53;;
48975;SDS011;34791;52.752;8.346;2023-03-03T08:19:41;137.03;;;30.67;;
48975;SDS011;34791;52.752;8.346;2023-03-03T08:22:14;124.67;;;29.80;;
48975;SDS011;34791;52.752;8.346;2023-03-03T08:24:42;126.23;;;28.03;;
48975;SDS011;34791;52.752;8.346;2023-03-03T08:27:07;111.90;;;28.20;;
48975;SDS011;34791;52.752;8.346;2023-03-03T08:29:32;105.53;;;26.53;;
48975;SDS011;34791;52.752;8.346;2023-03-03T08:31:58;121.40;;;28.43;;
48975;SDS011;34791;52.752;8.346;2023-03-03T08:34:23;100.33;;;26.70;;
48975;SDS011;34791;52.752;8.346;2023-03-03T08:36:49;103.97;;;27.43;;
48975;SDS011;34791;52.752;8.346;2023-03-03T08:39:14;91.83;;;24.73;;
48975;SDS011;34791;52.752;8.346;2023-03-03T08:41:40;89.37;;;25.23;;
48975;SDS011;34791;52.752;8.346;2023-03-03T08:44:07;89.87;;;26.73;;
48975;SDS011;34791;52.752;8.346;2023-03-03T08:46:33;77.30;;;23.77;;
48975;SDS011;34791;52.752;8.346;2023-03-03T08:48:58;66.33;;;21.40;;
48975;SDS011;34791;52.752;8.346;2023-03-03T08:51:24;69.27;;;21.83;;
48975;SDS011;34791;52.752;8.346;2023-03-03T08:53:50;64.37;;;21.53;;
48975;SDS011;34791;52.752;8.346;2023-03-03T08:56:16;70.23;;;24.80;;
48975;SDS011;34791;52.752;8.346;2023-03-03T08:58:41;65.70;;;22.17;;
48975;SDS011;34791;52.752;8.346;2023-03-03T09:01:12;57.03;;;20.97;;
48975;SDS011;34791;52.752;8.346;2023-03-03T09:03:39;50.13;;;19.83;;
48975;SDS011;34791;52.752;8.346;2023-03-03T09:06:05;56.17;;;21.33;;
48975;SDS011;34791;52.752;8.346;2023-03-03T09:08:30;52.60;;;18.73;;
48975;SDS011;34791;52.752;8.346;2023-03-03T09:10:56;55.07;;;22.03;;
48975;SDS011;34791;52.752;8.346;2023-03-03T09:13:21;53.33;;;21.77;;
48975;SDS011;34791;52.752;8.346;2023-03-03T09:15:47;42.17;;;17.87;;
48975;SDS011;34791;52.752;8.346;2023-03-03T09:18:20;40.33;;;16.47;;
48975;SDS011;34791;52.752;8.346;2023-03-03T09:20:50;34.97;;;16.33;;
48975;SDS011;34791;52.752;8.346;2023-03-03T09:26:44;32.17;;;14.03;;
48975;SDS011;34791;52.752;8.346;2023-03-03T09:28:55;24.93;;;11.03;;
48975;SDS011;34791;52.752;8.346;2023-03-03T09:31:38;27.77;;;10.87;;
48975;SDS011;34791;52.752;8.346;2023-03-03T09:34:20;26.77;;;12.10;;
48975;SDS011;34791;52.752;8.346;2023-03-03T09:36:52;28.80;;;13.53;;
48975;SDS011;34791;52.752;8.346;2023-03-03T09:39:19;26.27;;;13.43;;
48975;SDS011;34791;52.752;8.346;2023-03-03T09:42:01;27.47;;;12.23;;
48975;SDS011;34791;52.752;8.346;2023-03-03T09:53:24;24.53;;;12.03;;
48975;SDS011;34791;52.752;8.346;2023-03-03T09:56:08;24.23;;;10.20;;
48975;SDS011;34791;52.752;8.346;2023-03-03T10:12:57;32.30;;;11.60;;
48975;SDS011;34791;52.752;8.346;2023-03-03T10:18:12;24.27;;;12.57;;
48975;SDS011;34791;52.752;8.346;2023-03-03T10:21:10;26.75;;;12.98;;
48975;SDS011;34791;52.752;8.346;2023-03-03T10:23:55;28.00;;;13.93;;
48975;SDS011;34791;52.752;8.346;2023-03-03T10:29:00;21.03;;;12.50;;
48975;SDS011;34791;52.752;8.346;2023-03-03T10:31:39;26.80;;;13.00;;
48975;SDS011;34791;52.752;8.346;2023-03-03T10:40:15;31.23;;;14.73;;
48975;SDS011;34791;52.752;8.346;2023-03-03T10:46:01;26.73;;;13.10;;
48975;SDS011;34791;52.752;8.346;2023-03-03T10:51:30;29.40;;;14.33;;
48975;SDS011;34791;52.752;8.346;2023-03-03T10:54:11;35.73;;;19.00;;
48975;SDS011;34791;52.752;8.346;2023-03-03T10:59:11;40.60;;;22.27;;
48975;SDS011;34791;52.752;8.346;2023-03-03T11:20:30;25.60;;;12.80;;
48975;SDS011;34791;52.752;8.346;2023-03-03T11:23:06;24.23;;;12.13;;
48975;SDS011;34791;52.752;8.346;2023-03-03T11:31:59;32.10;;;14.03;;
48975;SDS011;34791;52.752;8.346;2023-03-03T11:37:11;25.00;;;12.68;;
48975;SDS011;34791;52.752;8.346;2023-03-03T11:39:47;20.60;;;11.90;;
48975;SDS011;34791;52.752;8.346;2023-03-03T11:45:33;15.97;;;10.43;;
48975;SDS011;34791;52.752;8.346;2023-03-03T11:48:10;20.63;;;11.43;;
48975;SDS011;34791;52.752;8.346;2023-03-03T11:50:57;18.43;;;10.10;;
48975;SDS011;34791;52.752;8.346;2023-03-03T11:53:39;20.97;;;11.70;;
48975;SDS011;34791;52.752;8.346;2023-03-03T11:56:28;20.37;;;10.53;;
48975;SDS011;34791;52.752;8.346;2023-03-03T12:01:56;18.67;;;10.37;;
48975;SDS011;34791;52.752;8.346;2023-03-03T12:04:34;21.97;;;12.17;;
48975;SDS011;34791;52.752;8.346;2023-03-03T12:07:09;19.80;;;11.80;;
48975;SDS011;34791;52.752;8.346;2023-03-03T12:10:01;13.33;;;7.13;;
48975;SDS011;34791;52.752;8.346;2023-03-03T12:15:01;13.70;;;7.20;;
48975;SDS011;34791;52.752;8.346;2023-03-03T12:25:56;11.48;;;5.72;;
48975;SDS011;34791;52.752;8.346;2023-03-03T12:28:28;14.67;;;6.27;;
48975;SDS011;34791;52.752;8.346;2023-03-03T12:33:54;12.43;;;4.20;;
48975;SDS011;34791;52.752;8.346;2023-03-03T12:36:46;11.43;;;4.10;;
48975;SDS011;34791;52.752;8.346;2023-03-03T12:39:27;9.67;;;3.60;;
48975;SDS011;34791;52.752;8.346;2023-03-03T12:42:19;11.27;;;3.97;;
48975;SDS011;34791;52.752;8.346;2023-03-03T12:47:35;10.33;;;5.07;;
48975;SDS011;34791;52.752;8.346;2023-03-03T13:00:33;10.17;;;3.50;;
48975;SDS011;34791;52.752;8.346;2023-03-03T13:03:35;7.80;;;3.50;;
48975;SDS011;34791;52.752;8.346;2023-03-03T13:09:12;7.73;;;3.70;;
48975;SDS011;34791;52.752;8.346;2023-03-03T13:19:33;8.93;;;3.83;;
48975;SDS011;34791;52.752;8.346;2023-03-03T13:27:53;6.13;;;2.67;;
48975;SDS011;34791;52.752;8.346;2023-03-03T13:30:31;5.53;;;2.23;;
48975;SDS011;34791;52.752;8.346;2023-03-03T13:33:07;5.67;;;2.10;;
48975;SDS011;34791;52.752;8.346;2023-03-03T13:35:47;7.83;;;2.60;;
48975;SDS011;34791;52.752;8.346;2023-03-03T13:38:28;8.27;;;4.40;;
48975;SDS011;34791;52.752;8.346;2023-03-03T13:41:26;8.77;;;3.07;;
48975;SDS011;34791;52.752;8.346;2023-03-03T13:47:00;7.03;;;2.40;;
48975;SDS011;34791;52.752;8.346;2023-03-03T13:52:22;10.30;;;3.40;;
48975;SDS011;34791;52.752;8.346;2023-03-03T13:55:01;7.37;;;2.40;;
48975;SDS011;34791;52.752;8.346;2023-03-03T13:57:53;8.23;;;2.83;;
48975;SDS011;34791;52.752;8.346;2023-03-03T14:03:32;8.37;;;1.97;;
48975;SDS011;34791;52.752;8.346;2023-03-03T14:06:16;7.03;;;2.20;;
48975;SDS011;34791;52.752;8.346;2023-03-03T14:20:11;10.83;;;2.60;;
48975;SDS011;34791;52.752;8.346;2023-03-03T14:23:09;9.77;;;2.35;;
48975;SDS011;34791;52.752;8.346;2023-03-03T14:25:53;6.32;;;2.10;;
48975;SDS011;34791;52.752;8.346;2023-03-03T14:28:36;7.20;;;2.43;;
48975;SDS011;34791;52.752;8.346;2023-03-03T14:31:28;11.40;;;2.90;;
48975;SDS011;34791;52.752;8.346;2023-03-03T14:34:47;4.93;;;2.10;;
48975;SDS011;34791;52.752;8.346;2023-03-03T14:36:48;6.83;;;2.23;;
48975;SDS011;34791;52.752;8.346;2023-03-03T14:41:58;6.90;;;1.80;;
48975;SDS011;34791;52.752;8.346;2023-03-03T14:49:35;6.60;;;1.80;;
48975;SDS011;34791;52.752;8.346;2023-03-03T14:54:44;6.73;;;1.80;;
48975;SDS011;34791;52.752;8.346;2023-03-03T15:02:27;10.23;;;2.17;;
48975;SDS011;34791;52.752;8.346;2023-03-03T15:05:09;7.77;;;2.03;;
48975;SDS011;34791;52.752;8.346;2023-03-03T15:07:38;10.80;;;2.37;;
48975;SDS011;34791;52.752;8.346;2023-03-03T15:10:04;12.13;;;2.30;;
48975;SDS011;34791;52.752;8.346;2023-03-03T15:17:32;8.85;;;2.42;;
48975;SDS011;34791;52.752;8.346;2023-03-03T15:25:51;7.07;;;2.20;;
48975;SDS011;34791;52.752;8.346;2023-03-03T15:30:57;6.43;;;2.13;;
48975;SDS011;34791;52.752;8.346;2023-03-03T15:38:59;8.83;;;2.77;;
48975;SDS011;34791;52.752;8.346;2023-03-03T15:41:39;12.70;;;3.30;;
48975;SDS011;34791;52.752;8.346;2023-03-03T15:44:25;7.57;;;3.07;;
48975;SDS011;34791;52.752;8.346;2023-03-03T15:58:03;7.80;;;3.40;;
48975;SDS011;34791;52.752;8.346;2023-03-03T16:00:52;9.03;;;3.47;;
48975;SDS011;34791;52.752;8.346;2023-03-03T16:03:33;7.43;;;3.40;;
48975;SDS011;34791;52.752;8.346;2023-03-03T16:06:14;7.43;;;3.93;;
48975;SDS011;34791;52.752;8.346;2023-03-03T16:11:44;17.03;;;4.07;;
48975;SDS011;34791;52.752;8.346;2023-03-03T16:17:08;9.47;;;3.97;;
48975;SDS011;34791;52.752;8.346;2023-03-03T16:22:55;12.47;;;3.87;;
48975;SDS011;34791;52.752;8.346;2023-03-03T16:28:16;10.47;;;3.70;;
48975;SDS011;34791;52.752;8.346;2023-03-03T16:30:49;8.57;;;3.43;;
48975;SDS011;34791;52.752;8.346;2023-03-03T16:33:43;8.40;;;3.97;;
48975;SDS011;34791;52.752;8.346;2023-03-03T16:38:43;12.40;;;3.47;;
48975;SDS011;34791;52.752;8.346;2023-03-03T16:41:22;12.50;;;3.87;;
48975;SDS011;34791;52.752;8.346;2023-03-03T16:44:11;8.97;;;3.50;;
48975;SDS011;34791;52.752;8.346;2023-03-03T16:46:49;10.90;;;3.60;;
48975;SDS011;34791;52.752;8.346;2023-03-03T16:49:24;9.77;;;3.57;;
48975;SDS011;34791;52.752;8.346;2023-03-03T17:00:04;7.57;;;3.53;;
48975;SDS011;34791;52.752;8.346;2023-03-03T17:05:24;6.32;;;3.35;;
48975;SDS011;34791;52.752;8.346;2023-03-03T17:08:04;7.53;;;3.27;;
48975;SDS011;34791;52.752;8.346;2023-03-03T17:10:36;7.33;;;2.90;;
48975;SDS011;34791;52.752;8.346;2023-03-03T17:16:21;8.20;;;2.57;;
48975;SDS011;34791;52.752;8.346;2023-03-03T17:24:05;10.23;;;2.60;;
48975;SDS011;34791;52.752;8.346;2023-03-03T17:26:56;6.07;;;2.90;;
48975;SDS011;34791;52.752;8.346;2023-03-03T17:29:49;7.83;;;2.47;;
48975;SDS011;34791;52.752;8.346;2023-03-03T17:40:54;10.77;;;2.93;;
48975;SDS011;34791;52.752;8.346;2023-03-03T17:46:08;5.43;;;2.17;;
48975;SDS011;34791;52.752;8.346;2023-03-03T17:48:45;8.23;;;2.60;;
48975;SDS011;34791;52.752;8.346;2023-03-03T17:56:43;9.50;;;3.17;;
48975;SDS011;34791;52.752;8.346;2023-03-03T17:59:16;11.13;;;3.67;;
48975;SDS011;34791;52.752;8.346;2023-03-03T18:07:46;11.80;;;3.75;;
48975;SDS011;34791;52.752;8.346;2023-03-03T18:10:51;8.87;;;2.57;;
48975;SDS011;34791;52.752;8.346;2023-03-03T18:13:37;18.40;;;2.75;;
48975;SDS011;34791;52.752;8.346;2023-03-03T18:22:06;15.33;;;2.60;;
48975;SDS011;34791;52.752;8.346;2023-03-03T18:32:39;23.17;;;3.87;;
48975;SDS011;34791;52.752;8.346;2023-03-03T18:37:56;17.03;;;3.60;;
48975;SDS011;34791;52.752;8.346;2023-03-03T18:40:52;17.03;;;3.70;;
48975;SDS011;34791;52.752;8.346;2023-03-03T18:46:08;22.00;;;4.63;;
48975;SDS011;34791;52.752;8.346;2023-03-03T18:48:44;18.25;;;4.10;;
48975;SDS011;34791;52.752;8.346;2023-03-03T18:51:27;17.50;;;4.10;;
48975;SDS011;34791;52.752;8.346;2023-03-03T18:53:59;17.20;;;3.10;;
48975;SDS011;34791;52.752;8.346;2023-03-03T19:04:36;17.30;;;3.53;;
48975;SDS011;34791;52.752;8.346;2023-03-03T19:09:59;25.77;;;4.60;;
48975;SDS011;34791;52.752;8.346;2023-03-03T19:17:57;19.33;;;3.50;;
48975;SDS011;34791;52.752;8.346;2023-03-03T19:20:23;19.77;;;3.17;;
48975;SDS011;34791;52.752;8.346;2023-03-03T19:22:51;19.53;;;3.67;;
48975;SDS011;34791;52.752;8.346;2023-03-03T19:25:27;17.10;;;3.70;;
48975;SDS011;34791;52.752;8.346;2023-03-03T19:33:17;20.00;;;3.87;;
48975;SDS011;34791;52.752;8.346;2023-03-03T19:53:06;22.13;;;3.77;;
48975;SDS011;34791;52.752;8.346;2023-03-03T20:03:41;21.47;;;3.67;;
48975;SDS011;34791;52.752;8.346;2023-03-03T20:09:03;15.93;;;3.60;;
48975;SDS011;34791;52.752;8.346;2023-03-03T20:14:53;22.80;;;3.80;;
48975;SDS011;34791;52.752;8.346;2023-03-03T20:25:50;23.70;;;4.10;;
48975;SDS011;34791;52.752;8.346;2023-03-03T20:34:57;21.60;;;3.00;;
48975;SDS011;34791;52.752;8.346;2023-03-03T20:37:10;23.13;;;3.80;;
48975;SDS011;34791;52.752;8.346;2023-03-03T20:42:46;23.70;;;2.80;;
48975;SDS011;34791;52.752;8.346;2023-03-03T20:45:26;22.13;;;3.20;;
48975;SDS011;34791;52.752;8.346;2023-03-03T20:48:27;21.00;;;3.20;;
48975;SDS011;34791;52.752;8.346;2023-03-03T20:54:00;22.07;;;3.43;;
48975;SDS011;34791;52.752;8.346;2023-03-03T21:02:15;18.83;;;3.17;;
48975;SDS011;34791;52.752;8.346;2023-03-03T21:10:23;18.77;;;3.10;;
48975;SDS011;34791;52.752;8.346;2023-03-03T21:15:24;19.43;;;3.53;;
48975;SDS011;34791;52.752;8.346;2023-03-03T21:17:56;31.23;;;3.70;;
48975;SDS011;34791;52.752;8.346;2023-03-03T21:22:59;23.70;;;3.97;;
48975;SDS011;34791;52.752;8.346;2023-03-03T21:31:00;28.63;;;3.50;;
48975;SDS011;34791;52.752;8.346;2023-03-03T21:36:10;27.50;;;4.97;;